createdAt,value
2018-06-27T00:00:24.541Z,99.90
2018-06-27T00:02:53.619Z,99.90
2018-06-27T00:05:23.297Z,99.90
2018-06-27T00:07:51.999Z,99.90
2018-06-27T00:10:20.597Z,99.90
2018-06-27T00:12:49.199Z,99.90
2018-06-27T00:15:17.946Z,99.90
2018-06-27T00:17:46.605Z,99.90
2018-06-27T00:20:15.235Z,99.90
2018-06-27T00:22:43.864Z,99.90
2018-06-27T00:25:12.569Z,99.90
2018-06-27T00:27:42.173Z,99.90
2018-06-27T00:30:10.845Z,99.90
2018-06-27T00:32:39.572Z,99.90
2018-06-27T00:35:08.226Z,99.90
2018-06-27T00:37:36.916Z,99.90
2018-06-27T00:40:05.630Z,99.90
2018-06-27T00:42:34.313Z,99.90
2018-06-27T00:45:03.009Z,99.90
2018-06-27T00:47:31.767Z,99.90
2018-06-27T00:50:00.383Z,99.90
2018-06-27T00:52:29.126Z,99.90
2018-06-27T00:54:58.856Z,99.90
2018-06-27T00:57:27.461Z,99.90
2018-06-27T00:59:56.188Z,99.90
2018-06-27T01:02:25.855Z,99.90
2018-06-27T01:04:55.680Z,99.90
2018-06-27T01:07:24.340Z,99.90
2018-06-27T01:12:21.446Z,99.90
2018-06-27T01:14:50.769Z,99.90
2018-06-27T01:17:19.461Z,99.90
2018-06-27T01:19:48.127Z,99.90
2018-06-27T01:22:17.763Z,99.90
2018-06-27T01:24:51.440Z,99.90
2018-06-27T01:27:20.190Z,99.90
2018-06-27T01:29:48.848Z,99.90
2018-06-27T01:32:17.612Z,99.90
2018-06-27T01:34:46.321Z,99.90
2018-06-27T01:37:16.145Z,99.90
2018-06-27T01:39:46.789Z,99.90
2018-06-27T01:42:15.419Z,99.90
2018-06-27T01:44:44.194Z,99.90
2018-06-27T01:47:13.860Z,99.90
2018-06-27T01:49:42.622Z,99.90
2018-06-27T01:52:11.296Z,99.90
2018-06-27T01:54:40.071Z,99.90
2018-06-27T01:57:09.501Z,99.90
2018-06-27T01:59:38.267Z,99.90
2018-06-27T02:02:06.909Z,99.90
2018-06-27T02:04:35.968Z,99.90
2018-06-27T02:07:05.397Z,99.90
2018-06-27T02:09:34.080Z,99.90
2018-06-27T02:12:02.738Z,99.90
2018-06-27T02:14:31.390Z,99.90
2018-06-27T02:17:00.139Z,99.90
2018-06-27T02:19:28.783Z,99.90
2018-06-27T02:22:01.313Z,99.90
2018-06-27T02:24:29.960Z,99.90
2018-06-27T02:26:58.652Z,99.90
2018-06-27T02:29:27.316Z,99.90
2018-06-27T02:31:56.167Z,99.90
2018-06-27T02:34:24.896Z,99.90
2018-06-27T02:36:53.665Z,99.90
2018-06-27T02:39:23.335Z,99.90
2018-06-27T02:41:52.078Z,99.90
2018-06-27T02:44:20.868Z,99.90
2018-06-27T02:46:49.634Z,99.90
2018-06-27T02:49:18.334Z,99.90
2018-06-27T02:51:47.147Z,99.90
2018-06-27T02:54:15.858Z,99.90
2018-06-27T02:56:44.603Z,99.90
2018-06-27T02:59:13.283Z,99.90
2018-06-27T03:01:42.042Z,99.90
2018-06-27T03:04:10.706Z,99.90
2018-06-27T03:06:40.069Z,99.90
2018-06-27T03:09:10.202Z,99.90
2018-06-27T03:11:39.041Z,99.90
2018-06-27T03:14:07.766Z,99.90
2018-06-27T03:16:36.473Z,99.90
2018-06-27T03:19:05.259Z,99.90
2018-06-27T03:21:34.209Z,99.90
2018-06-27T03:24:03.567Z,99.90
2018-06-27T03:29:00.592Z,99.90
2018-06-27T03:31:29.376Z,99.90
2018-06-27T03:33:58.050Z,99.90
2018-06-27T03:36:27.761Z,99.90
2018-06-27T03:38:56.519Z,99.90
2018-06-27T03:41:25.171Z,99.90
2018-06-27T03:43:53.876Z,99.90
2018-06-27T03:46:23.592Z,99.90
2018-06-27T03:48:52.324Z,99.90
2018-06-27T03:51:21.001Z,99.90
2018-06-27T03:53:55.011Z,99.90
2018-06-27T03:56:23.637Z,99.90
2018-06-27T03:58:54.543Z,99.90
2018-06-27T04:01:23.401Z,99.90
2018-06-27T04:03:52.039Z,99.90
2018-06-27T04:06:20.871Z,99.90
2018-06-27T04:08:49.594Z,99.90
2018-06-27T04:11:18.302Z,99.90
2018-06-27T04:13:47.934Z,99.90
2018-06-27T04:18:45.293Z,99.90
2018-06-27T04:21:13.949Z,99.90
2018-06-27T04:23:42.842Z,99.90
2018-06-27T04:26:11.719Z,99.90
2018-06-27T04:28:41.875Z,99.90
2018-06-27T04:31:10.817Z,99.90
2018-06-27T04:33:39.809Z,99.90
2018-06-27T04:36:08.975Z,99.90
2018-06-27T04:38:37.956Z,99.90
2018-06-27T04:41:08.671Z,99.90
2018-06-27T04:43:38.646Z,99.90
2018-06-27T04:46:07.710Z,99.90
2018-06-27T04:48:36.582Z,99.90
2018-06-27T04:51:06.301Z,99.90
2018-06-27T04:53:36.198Z,99.90
2018-06-27T04:56:05.120Z,99.90
2018-06-27T04:58:33.930Z,99.90
2018-06-27T05:01:03.879Z,99.90
2018-06-27T05:03:32.891Z,99.60
2018-06-27T05:06:01.653Z,98.60
2018-06-27T05:08:30.486Z,97.70
2018-06-27T05:15:56.324Z,95.10
2018-06-27T05:18:25.974Z,93.80
2018-06-27T05:20:55.103Z,95.20
2018-06-27T05:23:23.891Z,95.40
2018-06-27T05:25:54.353Z,96.10
2018-06-27T05:28:25.248Z,95.80
2018-06-27T05:30:54.137Z,98.20
2018-06-27T05:33:22.944Z,98.20
2018-06-27T05:35:52.238Z,97.20
2018-06-27T05:38:27.340Z,95.50
2018-06-27T05:40:56.666Z,95.40
2018-06-27T05:43:25.516Z,96.00
2018-06-27T05:45:56.427Z,96.80
2018-06-27T05:48:25.234Z,97.50
2018-06-27T05:50:55.002Z,98.20
2018-06-27T05:53:23.744Z,99.50
2018-06-27T05:55:53.452Z,99.90
2018-06-27T05:58:22.356Z,99.90
2018-06-27T06:00:57.006Z,99.90
2018-06-27T06:03:25.933Z,99.90
2018-06-27T06:05:55.067Z,99.90
2018-06-27T06:08:23.947Z,99.90
2018-06-27T06:10:52.828Z,99.90
2018-06-27T06:13:22.992Z,99.90
2018-06-27T06:15:52.294Z,99.90
2018-06-27T06:18:21.390Z,99.90
2018-06-27T06:20:52.967Z,99.90
2018-06-27T06:23:22.231Z,99.90
2018-06-27T06:25:59.736Z,99.90
2018-06-27T06:28:30.106Z,99.90
2018-06-27T06:31:02.282Z,99.90
2018-06-27T06:33:37.204Z,99.90
2018-06-27T06:36:09.884Z,99.90
2018-06-27T06:38:41.801Z,99.60
2018-06-27T06:41:10.952Z,97.70
2018-06-27T06:43:44.241Z,99.20
2018-06-27T06:46:13.168Z,97.10
2018-06-27T06:48:41.984Z,98.10
2018-06-27T06:51:12.963Z,99.90
2018-06-27T06:53:44.072Z,99.70
2018-06-27T06:56:13.774Z,99.90
2018-06-27T06:58:42.542Z,99.70
2018-06-27T07:01:12.320Z,99.70
2018-06-27T07:03:41.227Z,96.40
2018-06-27T07:06:12.052Z,96.00
2018-06-27T07:08:46.375Z,97.10
2018-06-27T07:11:15.408Z,98.10
2018-06-27T07:13:44.075Z,95.30
2018-06-27T07:16:12.856Z,95.80
2018-06-27T07:18:46.087Z,96.00
2018-06-27T07:21:14.997Z,95.80
2018-06-27T07:23:43.851Z,97.40
2018-06-27T07:26:12.995Z,98.40
2018-06-27T07:28:41.969Z,97.40
2018-06-27T07:31:10.965Z,97.60
2018-06-27T07:33:40.519Z,99.60
2018-06-27T07:36:09.980Z,97.90
2018-06-27T07:38:38.851Z,97.20
2018-06-27T07:41:08.716Z,95.80
2018-06-27T07:43:37.974Z,97.60
2018-06-27T07:46:10.829Z,96.90
2018-06-27T07:48:39.859Z,96.90
2018-06-27T07:51:12.914Z,95.70
2018-06-27T07:53:42.016Z,96.60
2018-06-27T07:56:10.930Z,99.90
2018-06-27T07:58:39.888Z,95.70
2018-06-27T08:01:08.807Z,97.00
2018-06-27T08:03:37.875Z,96.30
2018-06-27T08:06:07.027Z,96.50
2018-06-27T08:08:36.287Z,95.00
2018-06-27T08:11:06.294Z,94.70
2018-06-27T08:13:35.251Z,96.40
2018-06-27T08:16:04.296Z,94.10
2018-06-27T08:18:44.097Z,95.50
2018-06-27T08:21:13.132Z,96.40
2018-06-27T08:26:12.605Z,92.90
2018-06-27T08:28:41.837Z,94.00
2018-06-27T08:31:11.287Z,92.50
2018-06-27T08:33:44.776Z,92.90
2018-06-27T08:36:15.072Z,91.60
2018-06-27T08:38:46.736Z,92.70
2018-06-27T08:43:44.650Z,92.50
2018-06-27T08:46:15.311Z,91.80
2018-06-27T08:48:45.585Z,91.90
2018-06-27T08:51:15.665Z,92.00
2018-06-27T08:53:44.948Z,91.00
2018-06-27T08:56:15.302Z,91.40
2018-06-27T08:58:45.347Z,92.00
2018-06-27T09:03:33.762Z,92.00
2018-06-27T09:06:04.007Z,92.00
2018-06-27T09:08:36.027Z,90.20
2018-06-27T09:11:07.034Z,89.10
2018-06-27T09:13:36.706Z,90.60
2018-06-27T09:16:06.978Z,90.50
2018-06-27T09:18:41.742Z,91.40
2018-06-27T09:21:27.980Z,90.60
2018-06-27T09:23:59.584Z,84.80
2018-06-27T09:26:29.417Z,90.70
2018-06-27T09:28:59.609Z,87.80
2018-06-27T09:31:36.165Z,86.40
2018-06-27T09:34:13.695Z,89.00
2018-06-27T09:36:46.742Z,86.00
2018-06-27T09:39:16.647Z,87.80
2018-06-27T09:41:48.249Z,87.80
2018-06-27T09:44:23.129Z,86.00
2018-06-27T09:46:57.203Z,89.00
2018-06-27T09:49:34.051Z,88.90
2018-06-27T09:52:04.567Z,83.10
2018-06-27T09:54:45.037Z,80.20
2018-06-27T09:57:19.536Z,89.20
2018-06-27T09:59:53.908Z,84.10
2018-06-27T10:02:23.660Z,87.30
2018-06-27T10:05:00.744Z,81.80
2018-06-27T10:07:31.938Z,84.80
2018-06-27T10:10:03.245Z,86.10
2018-06-27T10:12:38.022Z,83.50
2018-06-27T10:15:24.487Z,85.70
2018-06-27T10:17:54.399Z,82.40
2018-06-27T10:20:23.830Z,84.50
2018-06-27T10:23:01.430Z,82.40
2018-06-27T10:25:35.342Z,80.30
2018-06-27T10:28:11.020Z,85.50
2018-06-27T10:30:46.918Z,81.40
2018-06-27T10:33:20.552Z,80.00
2018-06-27T10:35:53.263Z,83.40
2018-06-27T10:38:24.697Z,83.10
2018-06-27T10:40:57.180Z,77.50
2018-06-27T10:43:34.808Z,82.40
2018-06-27T10:46:05.160Z,78.20
2018-06-27T10:48:35.710Z,82.70
2018-06-27T10:51:06.574Z,79.00
2018-06-27T10:53:41.547Z,85.50
2018-06-27T10:56:11.968Z,80.10
2018-06-27T10:58:42.347Z,85.90
2018-06-27T11:01:12.379Z,84.30
2018-06-27T11:03:44.364Z,83.90
2018-06-27T11:06:15.558Z,75.60
2018-06-27T11:08:45.448Z,83.80
2018-06-27T11:11:19.961Z,74.40
2018-06-27T11:13:53.497Z,80.70
2018-06-27T11:16:23.223Z,73.20
2018-06-27T11:18:52.636Z,76.10
2018-06-27T11:21:23.308Z,72.90
2018-06-27T11:24:00.488Z,74.60
2018-06-27T11:26:34.351Z,74.40
2018-06-27T11:29:03.749Z,74.50
2018-06-27T11:31:38.501Z,69.30
2018-06-27T11:34:11.199Z,70.60
2018-06-27T11:36:41.907Z,61.20
2018-06-27T11:39:14.196Z,62.50
2018-06-27T11:41:46.170Z,69.30
2018-06-27T11:52:52.571Z,67.50
2018-06-27T11:55:24.165Z,67.80
2018-06-27T11:57:54.440Z,62.60
2018-06-27T12:00:28.454Z,60.10
2018-06-27T12:03:01.710Z,62.60
2018-06-27T12:05:32.216Z,64.20
2018-06-27T12:08:05.638Z,62.20
2018-06-27T12:10:43.254Z,60.00
2018-06-27T12:13:14.781Z,63.80
2018-06-27T12:15:56.544Z,66.30
2018-06-27T12:18:27.141Z,57.70
2018-06-27T12:21:02.570Z,61.70
2018-06-27T12:23:33.420Z,59.40
2018-06-27T12:26:03.507Z,67.50
2018-06-27T12:28:33.152Z,65.90
2018-06-27T12:31:07.932Z,61.20
2018-06-27T12:33:37.159Z,63.00
2018-06-27T12:36:07.019Z,58.30
2018-06-27T12:38:40.351Z,63.80
2018-06-27T12:41:13.185Z,60.50
2018-06-27T12:43:47.480Z,53.00
2018-06-27T12:46:17.934Z,58.70
2018-06-27T12:48:47.484Z,54.10
2018-06-27T12:51:17.118Z,57.50
2018-06-27T12:53:48.313Z,53.10
2018-06-27T12:56:19.511Z,60.40
2018-06-27T12:58:51.329Z,61.60
2018-06-27T13:01:22.441Z,65.80
2018-06-27T13:03:52.032Z,57.40
2018-06-27T13:06:23.628Z,65.90
2018-06-27T13:08:56.890Z,53.90
2018-06-27T13:11:34.506Z,63.90
2018-06-27T13:14:04.652Z,63.10
2018-06-27T13:16:37.662Z,61.60
2018-06-27T13:19:13.191Z,64.60
2018-06-27T13:21:42.902Z,64.80
2018-06-27T13:24:13.348Z,61.90
2018-06-27T13:26:43.382Z,65.40
2018-06-27T13:29:12.530Z,62.90
2018-06-27T13:31:43.066Z,64.50
2018-06-27T13:34:17.178Z,68.50
2018-06-27T13:36:47.327Z,70.60
2018-06-27T13:39:17.291Z,64.20
2018-06-27T13:41:48.571Z,65.40
2018-06-27T13:44:25.189Z,64.60
2018-06-27T13:46:59.411Z,67.50
2018-06-27T13:49:34.950Z,67.10
2018-06-27T13:52:04.409Z,67.30
2018-06-27T13:54:35.468Z,74.30
2018-06-27T13:57:07.378Z,70.80
2018-06-27T13:59:37.729Z,69.90
2018-06-27T14:02:07.853Z,70.60
2018-06-27T14:04:36.736Z,69.30
2018-06-27T14:07:06.464Z,67.70
2018-06-27T14:09:40.318Z,68.00
2018-06-27T14:12:10.213Z,68.00
2018-06-27T14:14:40.710Z,69.60
2018-06-27T14:17:11.552Z,69.50
2018-06-27T14:19:40.469Z,69.60
2018-06-27T14:22:10.266Z,77.30
2018-06-27T14:24:39.329Z,74.20
2018-06-27T14:27:08.092Z,75.50
2018-06-27T14:29:36.927Z,79.80
2018-06-27T14:32:07.822Z,78.30
2018-06-27T14:34:37.770Z,79.20
2018-06-27T14:37:07.013Z,79.60
2018-06-27T14:39:41.838Z,78.60
2018-06-27T14:42:11.046Z,79.00
2018-06-27T14:44:39.989Z,74.40
2018-06-27T14:47:10.206Z,74.40
2018-06-27T14:49:39.123Z,71.10
2018-06-27T14:52:08.188Z,68.20
2018-06-27T14:54:37.107Z,68.50
2018-06-27T14:57:07.816Z,70.00
2018-06-27T14:59:36.998Z,67.70
2018-06-27T15:02:06.989Z,75.00
2018-06-27T15:04:36.791Z,72.80
2018-06-27T15:07:07.251Z,71.00
2018-06-27T15:09:36.327Z,69.40
2018-06-27T15:12:06.425Z,68.10
2018-06-27T15:14:35.431Z,68.50
2018-06-27T15:17:06.612Z,66.30
2018-06-27T15:19:39.821Z,67.00
2018-06-27T15:22:14.773Z,68.60
2018-06-27T15:24:48.815Z,63.80
2018-06-27T15:27:22.473Z,64.10
2018-06-27T15:30:04.502Z,64.90
2018-06-27T15:32:40.288Z,65.20
2018-06-27T15:35:16.918Z,66.30
2018-06-27T15:40:39.194Z,63.90
2018-06-27T15:43:11.498Z,60.20
2018-06-27T15:45:51.299Z,65.00
2018-06-27T15:48:43.737Z,64.50
2018-06-27T15:51:16.415Z,64.30
2018-06-27T15:53:45.138Z,62.10
2018-06-27T15:56:13.866Z,60.00
2018-06-27T15:58:42.530Z,56.80
2018-06-27T16:01:11.355Z,61.20
2018-06-27T16:03:41.107Z,62.10
2018-06-27T16:06:10.888Z,64.20
2018-06-27T16:08:39.727Z,60.90
2018-06-27T16:11:08.547Z,64.10
2018-06-27T16:13:37.400Z,55.00
2018-06-27T16:16:06.184Z,59.40
2018-06-27T16:18:35.525Z,62.70
2018-06-27T16:21:04.432Z,61.20
2018-06-27T16:23:33.203Z,63.50
2018-06-27T16:26:01.963Z,63.40
2018-06-27T16:28:31.299Z,65.20
2018-06-27T16:31:00.030Z,64.20
2018-06-27T16:33:28.770Z,65.80
2018-06-27T16:35:57.496Z,68.20
2018-06-27T16:38:26.218Z,66.30
2018-06-27T16:40:54.998Z,65.60
2018-06-27T16:43:23.681Z,64.60
2018-06-27T16:45:53.393Z,66.00
2018-06-27T16:48:22.172Z,60.00
2018-06-27T16:50:51.119Z,64.80
2018-06-27T16:53:20.702Z,66.50
2018-06-27T16:55:49.451Z,61.10
2018-06-27T16:58:18.180Z,55.50
2018-06-27T17:00:46.980Z,55.30
2018-06-27T17:03:15.743Z,55.50
2018-06-27T17:05:44.603Z,56.40
2018-06-27T17:08:13.331Z,56.20
2018-06-27T17:10:42.026Z,59.40
2018-06-27T17:13:11.329Z,54.10
2018-06-27T17:15:40.088Z,56.10
2018-06-27T17:18:08.861Z,55.20
2018-06-27T17:20:37.588Z,56.60
2018-06-27T17:23:06.322Z,57.80
2018-06-27T17:25:34.987Z,56.60
2018-06-27T17:28:03.760Z,58.50
2018-06-27T17:30:32.461Z,59.70
2018-06-27T17:33:01.311Z,60.60
2018-06-27T17:35:30.332Z,62.60
2018-06-27T17:37:59.065Z,62.50
2018-06-27T17:42:56.165Z,62.90
2018-06-27T17:45:25.578Z,62.50
2018-06-27T17:47:54.334Z,58.70
2018-06-27T17:50:23.005Z,57.20
2018-06-27T17:52:51.741Z,57.60
2018-06-27T17:55:20.385Z,57.70
2018-06-27T18:00:18.920Z,60.00
2018-06-27T18:02:47.707Z,58.60
2018-06-27T18:05:16.479Z,61.90
2018-06-27T18:07:45.181Z,62.30
2018-06-27T18:10:13.845Z,62.10
2018-06-27T18:12:45.665Z,62.80
2018-06-27T18:15:14.381Z,63.10
2018-06-27T18:17:43.098Z,62.70
2018-06-27T18:20:11.732Z,62.70
2018-06-27T18:22:40.824Z,63.40
2018-06-27T18:25:09.561Z,65.40
2018-06-27T18:27:38.234Z,68.30
2018-06-27T18:30:08.091Z,69.10
2018-06-27T18:32:41.581Z,69.80
2018-06-27T18:35:11.307Z,68.30
2018-06-27T18:37:40.122Z,67.50
2018-06-27T18:40:09.362Z,68.60
2018-06-27T18:42:38.137Z,66.90
2018-06-27T18:45:08.327Z,66.60
2018-06-27T18:47:37.045Z,66.40
2018-06-27T18:50:05.933Z,67.00
2018-06-27T18:52:34.667Z,67.10
2018-06-27T18:55:03.500Z,68.80
2018-06-27T18:57:32.123Z,68.90
2018-06-27T19:00:00.864Z,70.50
2018-06-27T19:02:29.588Z,70.10
2018-06-27T19:04:59.328Z,69.60
2018-06-27T19:07:28.146Z,70.10
2018-06-27T19:09:57.025Z,71.40
2018-06-27T19:12:25.784Z,71.80
2018-06-27T19:14:54.815Z,71.70
2018-06-27T19:17:23.511Z,71.90
2018-06-27T19:19:52.174Z,72.60
2018-06-27T19:22:20.903Z,73.40
2018-06-27T19:24:49.570Z,73.30
2018-06-27T19:27:18.382Z,73.70
2018-06-27T19:29:47.060Z,74.00
2018-06-27T19:32:15.820Z,74.10
2018-06-27T19:34:44.553Z,74.30
2018-06-27T19:37:13.297Z,74.40
2018-06-27T19:39:42.012Z,75.50
2018-06-27T19:42:10.750Z,75.40
2018-06-27T19:44:40.521Z,71.40
2018-06-27T19:47:09.258Z,70.40
2018-06-27T19:49:38.274Z,69.30
2018-06-27T19:52:08.008Z,68.10
2018-06-27T19:54:36.760Z,70.00
2018-06-27T19:57:05.739Z,71.60
2018-06-27T19:59:34.445Z,73.00
2018-06-27T20:02:03.248Z,74.00
2018-06-27T20:04:32.065Z,75.20
2018-06-27T20:07:00.754Z,75.20
2018-06-27T20:09:29.601Z,76.40
2018-06-27T20:11:58.274Z,77.30
2018-06-27T20:14:27.180Z,78.80
2018-06-27T20:16:55.803Z,79.40
2018-06-27T20:19:24.571Z,79.90
2018-06-27T20:21:53.264Z,79.80
2018-06-27T20:24:22.017Z,79.40
2018-06-27T20:29:19.960Z,77.30
2018-06-27T20:31:48.754Z,78.60
2018-06-27T20:34:17.420Z,79.40
2018-06-27T20:36:46.122Z,80.70
2018-06-27T20:39:14.825Z,81.90
2018-06-27T20:41:43.615Z,82.70
2018-06-27T20:44:12.359Z,83.60
2018-06-27T20:46:41.069Z,84.90
2018-06-27T20:49:09.847Z,85.60
2018-06-27T20:51:38.576Z,86.40
2018-06-27T20:54:07.454Z,89.60
2018-06-27T20:56:36.180Z,88.90
2018-06-27T20:59:04.998Z,88.90
2018-06-27T21:01:33.744Z,90.20
2018-06-27T21:04:02.483Z,90.30
2018-06-27T21:06:31.111Z,90.20
2018-06-27T21:08:59.782Z,90.70
2018-06-27T21:11:29.564Z,91.20
2018-06-27T21:13:58.216Z,90.60
2018-06-27T21:16:26.920Z,91.30
2018-06-27T21:18:55.613Z,91.40
2018-06-27T21:21:24.389Z,91.60
2018-06-27T21:23:53.724Z,90.50
2018-06-27T21:26:23.457Z,91.50
2018-06-27T21:28:52.124Z,91.90
2018-06-27T21:31:20.940Z,91.50
2018-06-27T21:33:49.642Z,92.20
2018-06-27T21:38:46.636Z,92.20
2018-06-27T21:41:15.502Z,91.80
2018-06-27T21:43:44.221Z,92.10
2018-06-27T21:46:12.920Z,92.00
2018-06-27T21:48:41.655Z,93.40
2018-06-27T21:51:10.288Z,92.40
2018-06-27T21:53:38.984Z,92.90
2018-06-27T21:56:10.740Z,92.70
2018-06-27T21:58:39.500Z,92.10
2018-06-27T22:01:08.221Z,93.20
2018-06-27T22:03:37.003Z,92.40
2018-06-27T22:08:34.187Z,92.20
2018-06-27T22:11:02.928Z,92.30
2018-06-27T22:13:33.645Z,92.10
2018-06-27T22:16:02.463Z,92.30
2018-06-27T22:18:32.776Z,92.70
2018-06-27T22:21:01.516Z,92.90
2018-06-27T22:23:30.149Z,93.90
2018-06-27T22:25:58.899Z,93.30
2018-06-27T22:28:27.603Z,93.00
2018-06-27T22:30:56.271Z,93.40
2018-06-27T22:33:25.104Z,94.70
2018-06-27T22:35:53.767Z,93.00
2018-06-27T22:38:22.438Z,93.90
2018-06-27T22:40:51.247Z,93.30
2018-06-27T22:43:20.012Z,93.90
2018-06-27T22:45:49.258Z,93.60
2018-06-27T22:48:17.981Z,95.90
2018-06-27T22:50:46.719Z,94.10
2018-06-27T22:53:15.361Z,94.00
2018-06-27T22:55:44.163Z,94.00
2018-06-27T22:58:13.943Z,94.00
2018-06-27T23:00:42.646Z,94.30
2018-06-27T23:03:11.342Z,94.50
2018-06-27T23:05:40.100Z,94.60
2018-06-27T23:08:08.881Z,95.70
2018-06-27T23:10:37.605Z,94.90
2018-06-27T23:15:35.719Z,96.20
2018-06-27T23:18:04.561Z,96.30
2018-06-27T23:20:33.170Z,95.70
2018-06-27T23:23:02.845Z,96.20
2018-06-27T23:25:31.938Z,96.70
2018-06-27T23:28:00.613Z,96.90
2018-06-27T23:30:29.239Z,96.70
2018-06-27T23:32:57.913Z,97.90
2018-06-27T23:35:26.637Z,97.80
2018-06-27T23:37:55.267Z,96.70
2018-06-27T23:40:25.036Z,96.90
2018-06-27T23:42:53.678Z,98.90
2018-06-27T23:45:23.127Z,98.10
2018-06-27T23:47:51.780Z,96.90
2018-06-27T23:50:20.455Z,97.00
2018-06-27T23:52:49.169Z,97.60
2018-06-27T23:55:17.873Z,98.30
2018-06-27T23:57:46.648Z,98.50
